Penn Yan, NY

10:50 AM EDT on April 01, 2015 (GMT -0400)
Dresden | | Change Station
CLOSE
Current Station
Personal Weather Station
Location: Penn Yan, NY
Elevation: 636 ft
Nearby Weather Stations

Elev 636 ft 42.71 °N, 76.97 °W | Updated 22 seconds ago

Scattered Clouds
Scattered Clouds
37.4 °F
Feels Like 33 °F
N
6.0
Wind Variable Wind from North
Gusts 8.0 mph

Today
High -- | Low -- °F
--% Chance of Precip.
Yesterday
High -- | Low -- °F
Precip. -- in
6:50 AM 7:34 PM
Waxing Gibbous, 93% visible
Pressure 30.14 in
Visibility 10.0 miles
Clouds Scattered Clouds 2800 ft
Windchill 33 °F
Dew Point 18 °F
Humidity 46%
Rainfall 0.00 in
Snow Depth Not available.
UV 3 out of 12
Pollen 3.40 out of 12
Air Quality Not available.
Flu Activity Not available.
METAR KPEO 011353Z AUTO 36006KT 10SM SCT028 01/M08 A3011 RMK AO2 SLP207 T00111078

More Conditions Fewer Conditions

Pressure 30.14 in
Visibility 10.0 miles
Clouds Scattered Clouds 2800 ft
Windchill 33 °F
Dew Point 18 °F
Humidity 46%
Rainfall 0.00 in
Snow Depth Not available.
UV 3 out of 12
Pollen 3.40 out of 12
Air Quality Not available.
Flu Activity Not available.
METAR KPEO 011353Z AUTO 36006KT 10SM SCT028 01/M08 A3011 RMK AO2 SLP207 T00111078

More Conditions Fewer Conditions

10-Day Weather Forecast

Almanac

Astronomy

Apr. 01, 2015 Rise Set
Actual Time
Civil Twilight
Nautical Twilight
Astronomical Twilight
Moon
Length of Visible Light
Length of Day
Tomorrow will be .
, % of the Moon is Illuminated

Today's Extremes

State Highs State Lows

Community

WunderPhotos

Upload Photos

1,809,974 photos uploaded!

WunderBlogs® & News

Nearby

Air Quality

  Air Quality AQ Index Pollutant
Not available.

Snow Depth

Station Depth Elevation

Earthquake Activity

City Distance Mag. Time & Date
Minimum magnitude displayed is 2.5.

Coastal Water Temperatures

Place Temperature

Stations

Nearby Weather Stations

Station Location Temp. Windchill Dew Point Humidity Wind Precip. Elev Updated Type